createdAt,value
2023-02-11T00:02:10.944Z,27.40
2023-02-11T00:04:41.652Z,27.40
2023-02-11T00:07:12.319Z,28.20
2023-02-11T00:09:43.010Z,27.80
2023-02-11T00:12:14.007Z,28.30
2023-02-11T00:14:44.651Z,27.90
2023-02-11T00:17:15.455Z,28.70
2023-02-11T00:19:49.058Z,28.80
2023-02-11T00:22:20.374Z,26.60
2023-02-11T00:24:51.109Z,28.50
2023-02-11T00:27:21.899Z,27.90
2023-02-11T00:29:53.295Z,28.20
2023-02-11T00:32:23.947Z,27.10
2023-02-11T00:34:54.920Z,28.60
2023-02-11T00:37:25.725Z,27.40
2023-02-11T00:39:56.621Z,29.60
2023-02-11T00:42:27.247Z,29.40
2023-02-11T00:44:57.969Z,29.10
2023-02-11T00:47:28.755Z,28.30
2023-02-11T00:49:59.419Z,28.20
2023-02-11T00:52:30.097Z,28.50
2023-02-11T00:55:00.843Z,29.20
2023-02-11T00:57:31.464Z,27.60
2023-02-11T01:00:02.756Z,27.40
2023-02-11T01:02:33.917Z,27.10
2023-02-11T01:05:06.364Z,27.90
2023-02-11T01:07:37.052Z,28.50
2023-02-11T01:10:14.517Z,29.00
2023-02-11T01:12:45.412Z,29.20
2023-02-11T01:15:18.664Z,29.80
2023-02-11T01:17:49.291Z,29.00
2023-02-11T01:20:22.992Z,27.50
2023-02-11T01:22:53.657Z,29.50
2023-02-11T01:25:24.316Z,30.50
2023-02-11T01:27:54.900Z,27.70
2023-02-11T01:30:32.084Z,29.80
2023-02-11T01:33:02.816Z,29.30
2023-02-11T01:35:33.478Z,27.70
2023-02-11T01:38:04.111Z,30.00
2023-02-11T01:40:35.014Z,30.50
2023-02-11T01:43:05.649Z,30.40
2023-02-11T01:45:57.367Z,29.30
2023-02-11T01:48:31.298Z,29.00
2023-02-11T01:51:06.102Z,30.10
2023-02-11T01:53:38.550Z,29.70
2023-02-11T01:56:10.632Z,30.70
2023-02-11T01:58:44.192Z,30.00
2023-02-11T02:01:20.134Z,29.40
2023-02-11T02:03:56.958Z,28.00
2023-02-11T02:06:33.225Z,30.40
2023-02-11T02:09:07.174Z,28.60
2023-02-11T02:11:38.106Z,29.80
2023-02-11T02:14:08.739Z,27.90
2023-02-11T02:16:39.841Z,27.50
2023-02-11T02:22:22.076Z,27.30
2023-02-11T02:25:09.553Z,28.40
2023-02-11T02:27:55.399Z,28.60
2023-02-11T02:30:55.973Z,29.40
2023-02-11T02:33:42.811Z,29.20
2023-02-11T02:36:19.596Z,29.10
2023-02-11T02:38:55.714Z,28.00
2023-02-11T02:41:30.151Z,31.40
2023-02-11T02:44:01.108Z,28.80
2023-02-11T02:46:34.628Z,29.00
2023-02-11T02:49:12.360Z,30.50
2023-02-11T02:52:08.129Z,29.10
2023-02-11T02:54:56.179Z,28.50
2023-02-11T02:57:35.996Z,29.40
2023-02-11T03:00:28.258Z,29.90
2023-02-11T03:03:14.967Z,27.20
2023-02-11T03:05:54.571Z,30.50
2023-02-11T03:08:32.860Z,29.80
2023-02-11T03:11:06.162Z,28.90
2023-02-11T03:13:39.316Z,31.20
2023-02-11T03:16:13.566Z,29.70
2023-02-11T03:18:48.333Z,31.40
2023-02-11T03:21:20.515Z,30.00
2023-02-11T03:23:53.224Z,31.00
2023-02-11T03:26:28.945Z,32.80
2023-02-11T03:29:08.442Z,31.10
2023-02-11T03:31:47.157Z,29.50
2023-02-11T03:34:26.042Z,30.80
2023-02-11T03:37:00.541Z,30.50
2023-02-11T03:39:35.199Z,32.20
2023-02-11T03:42:09.058Z,30.80
2023-02-11T03:44:43.939Z,30.90
2023-02-11T03:47:19.136Z,31.60
2023-02-11T03:49:51.822Z,31.10
2023-02-11T03:52:24.869Z,29.90
2023-02-11T03:55:00.168Z,31.40
2023-02-11T03:57:31.008Z,31.70
2023-02-11T04:00:01.876Z,32.00
2023-02-11T04:02:35.669Z,32.80
2023-02-11T04:05:07.753Z,30.60
2023-02-11T04:07:38.517Z,31.40
2023-02-11T04:10:12.893Z,31.90
2023-02-11T04:12:43.511Z,31.90
2023-02-11T04:15:14.113Z,32.90
2023-02-11T04:17:44.926Z,33.20
2023-02-11T04:20:15.587Z,32.50
2023-02-11T04:22:46.270Z,32.70
2023-02-11T04:25:16.943Z,31.90
2023-02-11T04:27:47.913Z,32.60
2023-02-11T04:32:47.845Z,29.60
2023-02-11T04:35:18.554Z,30.20
2023-02-11T04:37:49.293Z,33.20
2023-02-11T04:40:20.397Z,34.60
2023-02-11T04:45:20.157Z,31.80
2023-02-11T04:47:50.825Z,33.40
2023-02-11T04:50:21.546Z,34.30
2023-02-11T04:52:52.219Z,36.20
2023-02-11T04:55:22.875Z,40.00
2023-02-11T04:57:54.047Z,38.40
2023-02-11T05:02:53.869Z,34.30
2023-02-11T05:05:24.892Z,34.50
2023-02-11T05:07:55.541Z,34.60
2023-02-11T05:10:26.190Z,34.20
2023-02-11T05:12:56.960Z,35.10
2023-02-11T05:15:27.726Z,34.60
2023-02-11T05:17:58.453Z,35.30
2023-02-11T05:20:29.127Z,34.90
2023-02-11T05:22:59.786Z,33.70
2023-02-11T05:25:30.413Z,35.70
2023-02-11T05:28:01.266Z,34.50
2023-02-11T05:30:32.079Z,35.90
2023-02-11T05:33:02.779Z,37.00
2023-02-11T05:35:33.453Z,35.70
2023-02-11T05:38:04.192Z,36.00
2023-02-11T05:40:34.873Z,34.90
2023-02-11T05:43:05.510Z,35.30
2023-02-11T05:45:36.219Z,35.60
2023-02-11T05:48:07.173Z,35.00
2023-02-11T05:50:37.851Z,37.60
2023-02-11T05:53:08.735Z,35.00
2023-02-11T05:58:08.994Z,34.20
2023-02-11T06:00:39.809Z,35.90
2023-02-11T06:03:10.489Z,36.50
2023-02-11T06:05:42.224Z,35.00
2023-02-11T06:08:13.286Z,37.20
2023-02-11T06:10:46.204Z,37.40
2023-02-11T06:13:16.937Z,35.30
2023-02-11T06:15:55.181Z,34.40
2023-02-11T06:18:26.109Z,36.80
2023-02-11T06:20:56.767Z,36.20
2023-02-11T06:23:30.258Z,37.00
2023-02-11T06:26:04.688Z,37.20
2023-02-11T06:28:35.541Z,34.80
2023-02-11T06:31:10.954Z,37.20
2023-02-11T06:33:41.817Z,38.80
2023-02-11T06:36:18.061Z,38.70
2023-02-11T06:38:49.519Z,38.40
2023-02-11T06:41:20.746Z,38.60
2023-02-11T06:43:52.256Z,38.00
2023-02-11T06:46:23.018Z,37.60
2023-02-11T06:48:53.749Z,41.00
2023-02-11T06:51:24.625Z,38.70
2023-02-11T06:53:55.578Z,37.70
2023-02-11T06:56:26.432Z,39.60
2023-02-11T06:58:57.572Z,40.20
2023-02-11T07:03:58.312Z,37.50
2023-02-11T07:06:29.176Z,37.40
2023-02-11T07:09:00.116Z,37.00
2023-02-11T07:11:31.712Z,35.90
2023-02-11T07:14:04.599Z,35.70
2023-02-11T07:16:35.892Z,39.50
2023-02-11T07:19:06.656Z,35.60
2023-02-11T07:21:37.766Z,35.40
2023-02-11T07:26:42.049Z,35.40
2023-02-11T07:29:12.766Z,35.80
2023-02-11T07:31:43.520Z,37.10
2023-02-11T07:34:14.325Z,36.50
2023-02-11T07:36:44.961Z,39.00
2023-02-11T07:39:15.977Z,37.50
2023-02-11T07:41:46.970Z,39.90
2023-02-11T07:44:17.785Z,39.20
2023-02-11T07:46:48.774Z,40.20
2023-02-11T07:49:19.505Z,37.20
2023-02-11T07:51:50.144Z,38.60
2023-02-11T07:54:20.855Z,36.80
2023-02-11T07:56:51.598Z,37.60
2023-02-11T07:59:22.285Z,40.10
2023-02-11T08:01:53.003Z,38.80
2023-02-11T08:04:23.790Z,39.70
2023-02-11T08:06:56.502Z,41.80
2023-02-11T08:09:28.512Z,39.20
2023-02-11T08:11:59.954Z,40.40
2023-02-11T08:14:30.612Z,39.00
2023-02-11T08:17:01.255Z,40.90
2023-02-11T08:19:34.806Z,39.80
2023-02-11T08:22:05.893Z,38.20
2023-02-11T08:24:36.560Z,39.30
2023-02-11T08:27:07.181Z,36.10
2023-02-11T08:29:37.841Z,37.70
2023-02-11T08:32:08.703Z,40.50
2023-02-11T08:34:39.365Z,40.00
2023-02-11T08:37:10.153Z,38.50
2023-02-11T08:39:40.874Z,38.00
2023-02-11T08:42:11.506Z,39.10
2023-02-11T08:44:43.025Z,38.20
2023-02-11T08:47:13.645Z,39.10
2023-02-11T08:49:44.355Z,39.00
2023-02-11T08:52:15.084Z,36.70
2023-02-11T08:54:45.780Z,38.70
2023-02-11T08:57:16.462Z,39.10
2023-02-11T08:59:47.197Z,37.00
2023-02-11T09:02:18.050Z,35.90
2023-02-11T09:04:48.990Z,39.30
2023-02-11T09:07:19.698Z,38.70
2023-02-11T09:09:50.680Z,37.80
2023-02-11T09:12:21.335Z,37.40
2023-02-11T09:14:55.497Z,41.10
2023-02-11T09:17:26.184Z,40.50
2023-02-11T09:19:56.886Z,40.50
2023-02-11T09:22:27.703Z,45.80
2023-02-11T09:24:58.630Z,39.50
2023-02-11T09:27:29.251Z,42.10
2023-02-11T09:30:00.004Z,41.80
2023-02-11T09:32:30.722Z,36.50
2023-02-11T09:35:01.426Z,41.10
2023-02-11T09:37:32.057Z,41.10
2023-02-11T09:40:03.516Z,40.70
2023-02-11T09:42:47.988Z,37.10
2023-02-11T09:45:24.299Z,39.40
2023-02-11T09:47:59.186Z,38.30
2023-02-11T09:50:34.418Z,39.60
2023-02-11T09:53:10.870Z,39.20
2023-02-11T09:55:43.874Z,40.30
2023-02-11T09:58:16.705Z,37.80
2023-02-11T10:00:54.715Z,39.40
2023-02-11T10:03:44.953Z,37.40
2023-02-11T10:06:39.213Z,37.40
2023-02-11T10:09:34.043Z,40.20
2023-02-11T10:12:33.859Z,37.60
2023-02-11T10:15:18.887Z,38.20
2023-02-11T10:18:04.668Z,37.50
2023-02-11T10:20:38.615Z,37.10
2023-02-11T10:23:16.953Z,39.90
2023-02-11T10:25:50.795Z,40.60
2023-02-11T10:28:23.744Z,41.00
2023-02-11T10:31:02.973Z,40.20
2023-02-11T10:33:41.763Z,39.50
2023-02-11T10:36:13.315Z,39.70
2023-02-11T10:38:44.238Z,40.00
2023-02-11T10:41:21.288Z,40.70
2023-02-11T10:43:52.740Z,41.10
2023-02-11T10:46:29.491Z,40.90
2023-02-11T10:49:00.375Z,42.20
2023-02-11T10:51:32.146Z,40.10
2023-02-11T10:54:19.536Z,39.40
2023-02-11T10:56:58.557Z,39.70
2023-02-11T10:59:32.267Z,41.50
2023-02-11T11:02:04.962Z,41.70
2023-02-11T11:04:39.845Z,41.40
2023-02-11T11:07:20.072Z,41.20
2023-02-11T11:09:53.817Z,39.90
2023-02-11T11:12:30.018Z,40.00
2023-02-11T11:15:02.519Z,39.70
2023-02-11T11:17:33.765Z,38.50
